sensor_id;sensor_type;location;lat;lon;timestamp;P1;durP1;ratioP1;P2;durP2;ratioP2
45232;SDS011;30969;51.052;17.056;2023-06-14T00:04:22;2.78;;;1.45;;
45232;SDS011;30969;51.052;17.056;2023-06-14T00:09:27;2.63;;;1.85;;
45232;SDS011;30969;51.052;17.056;2023-06-14T00:14:30;2.35;;;1.98;;
45232;SDS011;30969;51.052;17.056;2023-06-14T00:19:35;2.90;;;1.73;;
45232;SDS011;30969;51.052;17.056;2023-06-14T00:24:40;3.78;;;1.88;;
45232;SDS011;30969;51.052;17.056;2023-06-14T00:29:44;3.65;;;2.05;;
45232;SDS011;30969;51.052;17.056;2023-06-14T00:34:50;2.90;;;2.08;;
45232;SDS011;30969;51.052;17.056;2023-06-14T00:39:53;1.80;;;1.48;;
45232;SDS011;30969;51.052;17.056;2023-06-14T00:44:57;3.10;;;1.67;;
45232;SDS011;30969;51.052;17.056;2023-06-14T00:50:04;3.47;;;1.85;;
45232;SDS011;30969;51.052;17.056;2023-06-14T00:55:10;2.80;;;1.92;;
45232;SDS011;30969;51.052;17.056;2023-06-14T01:00:14;2.70;;;1.90;;
45232;SDS011;30969;51.052;17.056;2023-06-14T01:05:20;3.55;;;1.80;;
45232;SDS011;30969;51.052;17.056;2023-06-14T01:10:30;3.63;;;1.70;;
45232;SDS011;30969;51.052;17.056;2023-06-14T01:15:40;2.80;;;1.48;;
45232;SDS011;30969;51.052;17.056;2023-06-14T01:20:47;2.70;;;2.05;;
45232;SDS011;30969;51.052;17.056;2023-06-14T01:25:53;2.88;;;1.73;;
45232;SDS011;30969;51.052;17.056;2023-06-14T01:30:59;2.05;;;1.55;;
45232;SDS011;30969;51.052;17.056;2023-06-14T01:36:06;3.00;;;1.42;;
45232;SDS011;30969;51.052;17.056;2023-06-14T01:41:12;3.67;;;1.90;;
45232;SDS011;30969;51.052;17.056;2023-06-14T01:46:17;2.88;;;1.77;;
45232;SDS011;30969;51.052;17.056;2023-06-14T01:51:22;2.80;;;2.00;;
45232;SDS011;30969;51.052;17.056;2023-06-14T01:56:27;2.28;;;1.73;;
45232;SDS011;30969;51.052;17.056;2023-06-14T02:01:30;2.50;;;1.60;;
45232;SDS011;30969;51.052;17.056;2023-06-14T02:06:36;2.95;;;1.67;;
45232;SDS011;30969;51.052;17.056;2023-06-14T02:11:41;2.95;;;1.52;;
45232;SDS011;30969;51.052;17.056;2023-06-14T02:16:44;1.88;;;1.50;;
45232;SDS011;30969;51.052;17.056;2023-06-14T02:21:50;2.70;;;1.70;;
45232;SDS011;30969;51.052;17.056;2023-06-14T02:26:56;2.90;;;1.67;;
45232;SDS011;30969;51.052;17.056;2023-06-14T02:31:59;3.10;;;1.65;;
45232;SDS011;30969;51.052;17.056;2023-06-14T02:37:03;2.05;;;1.50;;
45232;SDS011;30969;51.052;17.056;2023-06-14T02:42:08;1.58;;;1.25;;
45232;SDS011;30969;51.052;17.056;2023-06-14T02:47:12;2.03;;;1.63;;
45232;SDS011;30969;51.052;17.056;2023-06-14T02:52:15;2.75;;;1.60;;
45232;SDS011;30969;51.052;17.056;2023-06-14T02:57:21;2.28;;;1.50;;
45232;SDS011;30969;51.052;17.056;2023-06-14T03:02:25;3.30;;;2.17;;
45232;SDS011;30969;51.052;17.056;2023-06-14T03:07:29;4.20;;;1.70;;
45232;SDS011;30969;51.052;17.056;2023-06-14T03:12:34;2.78;;;1.80;;
45232;SDS011;30969;51.052;17.056;2023-06-14T03:17:38;3.13;;;1.98;;
45232;SDS011;30969;51.052;17.056;2023-06-14T03:22:48;3.38;;;1.92;;
45232;SDS011;30969;51.052;17.056;2023-06-14T03:27:57;3.25;;;2.13;;
45232;SDS011;30969;51.052;17.056;2023-06-14T03:33:01;3.00;;;1.98;;
45232;SDS011;30969;51.052;17.056;2023-06-14T03:38:05;4.38;;;2.25;;
45232;SDS011;30969;51.052;17.056;2023-06-14T03:43:10;3.03;;;2.13;;
45232;SDS011;30969;51.052;17.056;2023-06-14T03:48:14;2.88;;;2.00;;
45232;SDS011;30969;51.052;17.056;2023-06-14T03:53:18;2.13;;;1.48;;
45232;SDS011;30969;51.052;17.056;2023-06-14T03:58:23;3.28;;;2.10;;
45232;SDS011;30969;51.052;17.056;2023-06-14T04:03:27;2.88;;;2.08;;
45232;SDS011;30969;51.052;17.056;2023-06-14T04:08:32;2.95;;;1.80;;
45232;SDS011;30969;51.052;17.056;2023-06-14T04:13:39;2.78;;;1.90;;
45232;SDS011;30969;51.052;17.056;2023-06-14T04:18:43;2.65;;;1.95;;
45232;SDS011;30969;51.052;17.056;2023-06-14T04:23:46;2.28;;;1.60;;
45232;SDS011;30969;51.052;17.056;2023-06-14T04:28:52;2.95;;;1.88;;
45232;SDS011;30969;51.052;17.056;2023-06-14T04:33:58;3.00;;;2.00;;
45232;SDS011;30969;51.052;17.056;2023-06-14T04:39:03;3.33;;;2.00;;
45232;SDS011;30969;51.052;17.056;2023-06-14T04:44:08;3.13;;;2.08;;
45232;SDS011;30969;51.052;17.056;2023-06-14T04:49:12;2.22;;;1.48;;
45232;SDS011;30969;51.052;17.056;2023-06-14T04:54:17;2.80;;;1.83;;
45232;SDS011;30969;51.052;17.056;2023-06-14T04:59:22;2.58;;;1.70;;
45232;SDS011;30969;51.052;17.056;2023-06-14T05:04:26;2.20;;;1.60;;
45232;SDS011;30969;51.052;17.056;2023-06-14T05:09:30;2.00;;;1.60;;
45232;SDS011;30969;51.052;17.056;2023-06-14T05:14:36;2.78;;;1.70;;
45232;SDS011;30969;51.052;17.056;2023-06-14T05:19:40;3.67;;;2.45;;
45232;SDS011;30969;51.052;17.056;2023-06-14T05:24:44;4.18;;;2.45;;
45232;SDS011;30969;51.052;17.056;2023-06-14T05:29:51;2.85;;;1.65;;
45232;SDS011;30969;51.052;17.056;2023-06-14T05:34:57;3.60;;;2.28;;
45232;SDS011;30969;51.052;17.056;2023-06-14T05:40:01;4.80;;;3.08;;
45232;SDS011;30969;51.052;17.056;2023-06-14T05:45:08;4.07;;;2.28;;
45232;SDS011;30969;51.052;17.056;2023-06-14T05:50:12;4.72;;;2.60;;
45232;SDS011;30969;51.052;17.056;2023-06-14T05:55:16;3.85;;;2.60;;
45232;SDS011;30969;51.052;17.056;2023-06-14T06:00:22;4.35;;;2.95;;
45232;SDS011;30969;51.052;17.056;2023-06-14T06:05:25;3.50;;;2.53;;
45232;SDS011;30969;51.052;17.056;2023-06-14T06:10:29;3.58;;;2.53;;
45232;SDS011;30969;51.052;17.056;2023-06-14T06:15:34;4.60;;;2.90;;
45232;SDS011;30969;51.052;17.056;2023-06-14T06:20:38;4.13;;;3.05;;
45232;SDS011;30969;51.052;17.056;2023-06-14T06:25:42;5.13;;;3.40;;
45232;SDS011;30969;51.052;17.056;2023-06-14T06:30:47;7.10;;;3.40;;
45232;SDS011;30969;51.052;17.056;2023-06-14T06:35:55;5.22;;;3.72;;
45232;SDS011;30969;51.052;17.056;2023-06-14T06:40:59;5.80;;;4.07;;
45232;SDS011;30969;51.052;17.056;2023-06-14T06:46:04;5.20;;;3.35;;
45232;SDS011;30969;51.052;17.056;2023-06-14T06:51:07;4.88;;;3.38;;
45232;SDS011;30969;51.052;17.056;2023-06-14T06:56:11;4.85;;;3.70;;
45232;SDS011;30969;51.052;17.056;2023-06-14T07:01:16;6.20;;;4.60;;
45232;SDS011;30969;51.052;17.056;2023-06-14T07:06:20;6.38;;;4.20;;
45232;SDS011;30969;51.052;17.056;2023-06-14T07:11:24;5.35;;;3.95;;
45232;SDS011;30969;51.052;17.056;2023-06-14T07:16:29;6.97;;;4.03;;
45232;SDS011;30969;51.052;17.056;2023-06-14T07:21:33;4.50;;;3.30;;
45232;SDS011;30969;51.052;17.056;2023-06-14T07:26:37;5.65;;;3.78;;
45232;SDS011;30969;51.052;17.056;2023-06-14T07:31:42;5.07;;;3.90;;
45232;SDS011;30969;51.052;17.056;2023-06-14T07:36:45;6.75;;;4.20;;
45232;SDS011;30969;51.052;17.056;2023-06-14T07:41:50;5.05;;;3.67;;
45232;SDS011;30969;51.052;17.056;2023-06-14T07:46:55;4.18;;;3.10;;
45232;SDS011;30969;51.052;17.056;2023-06-14T07:52:00;3.67;;;2.90;;
45232;SDS011;30969;51.052;17.056;2023-06-14T07:57:03;4.68;;;3.53;;
45232;SDS011;30969;51.052;17.056;2023-06-14T08:02:09;5.30;;;4.20;;
45232;SDS011;30969;51.052;17.056;2023-06-14T08:07:13;5.70;;;3.75;;
45232;SDS011;30969;51.052;17.056;2023-06-14T08:12:16;6.07;;;4.03;;
45232;SDS011;30969;51.052;17.056;2023-06-14T08:17:21;4.80;;;3.65;;
45232;SDS011;30969;51.052;17.056;2023-06-14T08:22:25;6.60;;;4.32;;
45232;SDS011;30969;51.052;17.056;2023-06-14T08:27:30;6.70;;;4.45;;
45232;SDS011;30969;51.052;17.056;2023-06-14T08:32:35;3.88;;;2.97;;
45232;SDS011;30969;51.052;17.056;2023-06-14T08:37:39;3.83;;;3.10;;
45232;SDS011;30969;51.052;17.056;2023-06-14T08:42:44;4.15;;;3.17;;
45232;SDS011;30969;51.052;17.056;2023-06-14T08:47:50;4.10;;;3.15;;
45232;SDS011;30969;51.052;17.056;2023-06-14T08:53:00;4.60;;;3.25;;
45232;SDS011;30969;51.052;17.056;2023-06-14T08:58:06;4.70;;;3.40;;
45232;SDS011;30969;51.052;17.056;2023-06-14T09:03:12;4.95;;;3.85;;
45232;SDS011;30969;51.052;17.056;2023-06-14T09:08:16;4.10;;;3.15;;
45232;SDS011;30969;51.052;17.056;2023-06-14T09:13:24;4.32;;;3.30;;
45232;SDS011;30969;51.052;17.056;2023-06-14T09:18:37;6.05;;;4.25;;
45232;SDS011;30969;51.052;17.056;2023-06-14T09:23:43;5.45;;;3.90;;
45232;SDS011;30969;51.052;17.056;2023-06-14T09:28:48;6.53;;;3.95;;
45232;SDS011;30969;51.052;17.056;2023-06-14T09:33:54;5.20;;;3.92;;
45232;SDS011;30969;51.052;17.056;2023-06-14T09:38:59;5.00;;;3.42;;
45232;SDS011;30969;51.052;17.056;2023-06-14T09:44:08;4.57;;;3.08;;
45232;SDS011;30969;51.052;17.056;2023-06-14T09:49:22;4.38;;;3.10;;
45232;SDS011;30969;51.052;17.056;2023-06-14T09:54:27;4.50;;;3.30;;
45232;SDS011;30969;51.052;17.056;2023-06-14T09:59:32;4.15;;;2.90;;
45232;SDS011;30969;51.052;17.056;2023-06-14T10:04:37;3.42;;;2.63;;
45232;SDS011;30969;51.052;17.056;2023-06-14T10:09:44;3.85;;;2.42;;
45232;SDS011;30969;51.052;17.056;2023-06-14T10:14:51;3.45;;;2.20;;
45232;SDS011;30969;51.052;17.056;2023-06-14T10:20:06;3.15;;;2.00;;
45232;SDS011;30969;51.052;17.056;2023-06-14T10:25:26;2.65;;;2.17;;
45232;SDS011;30969;51.052;17.056;2023-06-14T10:30:31;2.60;;;1.80;;
45232;SDS011;30969;51.052;17.056;2023-06-14T10:35:36;2.22;;;1.73;;
45232;SDS011;30969;51.052;17.056;2023-06-14T10:40:40;3.17;;;1.85;;
45232;SDS011;30969;51.052;17.056;2023-06-14T10:51:18;2.28;;;1.80;;
45232;SDS011;30969;51.052;17.056;2023-06-14T10:56:23;1.60;;;1.40;;
45232;SDS011;30969;51.052;17.056;2023-06-14T11:01:32;2.55;;;1.83;;
45232;SDS011;30969;51.052;17.056;2023-06-14T11:06:47;2.20;;;1.60;;
45232;SDS011;30969;51.052;17.056;2023-06-14T11:11:54;2.33;;;1.67;;
45232;SDS011;30969;51.052;17.056;2023-06-14T11:17:00;6.57;;;1.80;;
45232;SDS011;30969;51.052;17.056;2023-06-14T11:22:05;3.35;;;2.08;;
45232;SDS011;30969;51.052;17.056;2023-06-14T11:27:09;4.90;;;2.20;;
45232;SDS011;30969;51.052;17.056;2023-06-14T11:32:13;2.03;;;1.60;;
45232;SDS011;30969;51.052;17.056;2023-06-14T11:37:18;2.25;;;1.88;;
45232;SDS011;30969;51.052;17.056;2023-06-14T11:42:22;4.47;;;2.20;;
45232;SDS011;30969;51.052;17.056;2023-06-14T11:47:31;2.67;;;2.00;;
45232;SDS011;30969;51.052;17.056;2023-06-14T11:52:36;2.83;;;1.85;;
45232;SDS011;30969;51.052;17.056;2023-06-14T11:57:40;3.90;;;1.92;;
45232;SDS011;30969;51.052;17.056;2023-06-14T12:02:51;3.83;;;1.80;;
45232;SDS011;30969;51.052;17.056;2023-06-14T12:08:00;6.50;;;1.90;;
45232;SDS011;30969;51.052;17.056;2023-06-14T12:13:05;4.05;;;2.10;;
45232;SDS011;30969;51.052;17.056;2023-06-14T12:18:09;3.90;;;1.80;;
45232;SDS011;30969;51.052;17.056;2023-06-14T12:23:15;2.83;;;1.90;;
45232;SDS011;30969;51.052;17.056;2023-06-14T12:28:18;2.08;;;1.55;;
45232;SDS011;30969;51.052;17.056;2023-06-14T12:33:22;2.42;;;1.85;;
45232;SDS011;30969;51.052;17.056;2023-06-14T12:38:27;2.38;;;1.70;;
45232;SDS011;30969;51.052;17.056;2023-06-14T12:43:31;2.75;;;1.83;;
45232;SDS011;30969;51.052;17.056;2023-06-14T12:48:34;2.60;;;2.05;;
45232;SDS011;30969;51.052;17.056;2023-06-14T12:53:39;3.78;;;2.08;;
45232;SDS011;30969;51.052;17.056;2023-06-14T12:58:43;4.50;;;1.90;;
45232;SDS011;30969;51.052;17.056;2023-06-14T13:03:46;2.83;;;2.10;;
45232;SDS011;30969;51.052;17.056;2023-06-14T13:08:53;1.70;;;1.50;;
45232;SDS011;30969;51.052;17.056;2023-06-14T13:13:59;3.05;;;1.95;;
45232;SDS011;30969;51.052;17.056;2023-06-14T13:19:18;3.33;;;1.98;;
45232;SDS011;30969;51.052;17.056;2023-06-14T13:24:23;2.60;;;2.10;;
45232;SDS011;30969;51.052;17.056;2023-06-14T13:29:27;4.63;;;2.30;;
45232;SDS011;30969;51.052;17.056;2023-06-14T13:34:32;3.38;;;2.45;;
45232;SDS011;30969;51.052;17.056;2023-06-14T13:39:38;3.58;;;2.28;;
45232;SDS011;30969;51.052;17.056;2023-06-14T13:44:41;3.08;;;2.40;;
45232;SDS011;30969;51.052;17.056;2023-06-14T13:49:45;4.45;;;2.30;;
45232;SDS011;30969;51.052;17.056;2023-06-14T13:54:50;3.92;;;2.25;;
45232;SDS011;30969;51.052;17.056;2023-06-14T13:59:54;5.38;;;2.75;;
45232;SDS011;30969;51.052;17.056;2023-06-14T14:05:03;2.80;;;2.05;;
45232;SDS011;30969;51.052;17.056;2023-06-14T14:10:09;3.30;;;2.08;;
45232;SDS011;30969;51.052;17.056;2023-06-14T14:15:15;3.38;;;2.15;;
45232;SDS011;30969;51.052;17.056;2023-06-14T14:20:19;3.10;;;2.40;;
45232;SDS011;30969;51.052;17.056;2023-06-14T14:25:24;2.72;;;2.00;;
45232;SDS011;30969;51.052;17.056;2023-06-14T14:30:28;2.33;;;1.77;;
45232;SDS011;30969;51.052;17.056;2023-06-14T14:35:31;4.25;;;1.92;;
45232;SDS011;30969;51.052;17.056;2023-06-14T14:40:36;4.03;;;2.15;;
45232;SDS011;30969;51.052;17.056;2023-06-14T14:45:40;2.20;;;1.73;;
45232;SDS011;30969;51.052;17.056;2023-06-14T14:50:45;2.42;;;1.95;;
45232;SDS011;30969;51.052;17.056;2023-06-14T14:55:49;2.40;;;1.88;;
45232;SDS011;30969;51.052;17.056;2023-06-14T15:00:53;3.25;;;2.00;;
45232;SDS011;30969;51.052;17.056;2023-06-14T15:05:57;2.13;;;1.92;;
45232;SDS011;30969;51.052;17.056;2023-06-14T15:11:02;3.15;;;2.20;;
45232;SDS011;30969;51.052;17.056;2023-06-14T15:16:05;2.53;;;1.88;;
45232;SDS011;30969;51.052;17.056;2023-06-14T15:21:09;3.20;;;2.33;;
45232;SDS011;30969;51.052;17.056;2023-06-14T15:26:14;3.17;;;2.42;;
45232;SDS011;30969;51.052;17.056;2023-06-14T15:31:17;2.55;;;2.35;;
45232;SDS011;30969;51.052;17.056;2023-06-14T15:36:21;5.30;;;2.33;;
45232;SDS011;30969;51.052;17.056;2023-06-14T15:41:26;3.08;;;2.28;;
45232;SDS011;30969;51.052;17.056;2023-06-14T15:46:29;4.15;;;2.10;;
45232;SDS011;30969;51.052;17.056;2023-06-14T15:51:33;3.38;;;2.47;;
45232;SDS011;30969;51.052;17.056;2023-06-14T15:56:38;3.90;;;2.60;;
45232;SDS011;30969;51.052;17.056;2023-06-14T16:01:42;3.25;;;2.15;;
45232;SDS011;30969;51.052;17.056;2023-06-14T16:06:45;4.03;;;2.90;;
45232;SDS011;30969;51.052;17.056;2023-06-14T16:11:50;2.92;;;2.35;;
45232;SDS011;30969;51.052;17.056;2023-06-14T16:16:55;3.40;;;2.55;;
45232;SDS011;30969;51.052;17.056;2023-06-14T16:22:01;3.65;;;2.63;;
45232;SDS011;30969;51.052;17.056;2023-06-14T16:27:10;4.88;;;2.92;;
45232;SDS011;30969;51.052;17.056;2023-06-14T16:32:16;5.72;;;2.78;;
45232;SDS011;30969;51.052;17.056;2023-06-14T16:37:20;3.38;;;2.45;;
45232;SDS011;30969;51.052;17.056;2023-06-14T16:42:35;4.32;;;2.20;;
45232;SDS011;30969;51.052;17.056;2023-06-14T16:47:38;2.67;;;2.28;;
45232;SDS011;30969;51.052;17.056;2023-06-14T16:52:42;3.20;;;2.10;;
45232;SDS011;30969;51.052;17.056;2023-06-14T16:57:48;2.40;;;1.92;;
45232;SDS011;30969;51.052;17.056;2023-06-14T17:02:52;2.13;;;1.70;;
45232;SDS011;30969;51.052;17.056;2023-06-14T17:07:56;2.53;;;1.90;;
45232;SDS011;30969;51.052;17.056;2023-06-14T17:13:02;4.55;;;1.83;;
45232;SDS011;30969;51.052;17.056;2023-06-14T17:18:06;2.30;;;1.77;;
45232;SDS011;30969;51.052;17.056;2023-06-14T17:23:10;2.95;;;1.63;;
45232;SDS011;30969;51.052;17.056;2023-06-14T17:28:17;2.35;;;1.85;;
45232;SDS011;30969;51.052;17.056;2023-06-14T17:33:20;3.13;;;1.92;;
45232;SDS011;30969;51.052;17.056;2023-06-14T17:38:24;2.83;;;1.83;;
45232;SDS011;30969;51.052;17.056;2023-06-14T17:43:30;2.53;;;1.65;;
45232;SDS011;30969;51.052;17.056;2023-06-14T17:48:34;2.72;;;1.95;;
45232;SDS011;30969;51.052;17.056;2023-06-14T17:53:38;2.97;;;1.40;;
45232;SDS011;30969;51.052;17.056;2023-06-14T17:58:43;2.70;;;1.80;;
45232;SDS011;30969;51.052;17.056;2023-06-14T18:03:47;2.70;;;1.60;;
45232;SDS011;30969;51.052;17.056;2023-06-14T18:08:50;1.80;;;1.40;;
45232;SDS011;30969;51.052;17.056;2023-06-14T18:13:55;2.58;;;1.27;;
45232;SDS011;30969;51.052;17.056;2023-06-14T18:19:00;2.17;;;1.50;;
45232;SDS011;30969;51.052;17.056;2023-06-14T18:24:04;1.95;;;1.40;;
45232;SDS011;30969;51.052;17.056;2023-06-14T18:29:09;2.42;;;1.50;;
45232;SDS011;30969;51.052;17.056;2023-06-14T18:34:12;1.63;;;1.40;;
45232;SDS011;30969;51.052;17.056;2023-06-14T18:39:16;1.30;;;1.17;;
45232;SDS011;30969;51.052;17.056;2023-06-14T18:44:22;2.70;;;1.40;;
45232;SDS011;30969;51.052;17.056;2023-06-14T18:49:25;1.83;;;1.30;;
45232;SDS011;30969;51.052;17.056;2023-06-14T18:54:30;2.08;;;1.20;;
45232;SDS011;30969;51.052;17.056;2023-06-14T18:59:36;2.05;;;1.40;;
45232;SDS011;30969;51.052;17.056;2023-06-14T19:04:40;1.58;;;1.30;;
45232;SDS011;30969;51.052;17.056;2023-06-14T19:09:43;2.55;;;1.92;;
45232;SDS011;30969;51.052;17.056;2023-06-14T19:14:48;3.25;;;1.70;;
45232;SDS011;30969;51.052;17.056;2023-06-14T19:19:52;4.43;;;2.00;;
45232;SDS011;30969;51.052;17.056;2023-06-14T19:24:55;2.20;;;1.70;;
45232;SDS011;30969;51.052;17.056;2023-06-14T19:30:00;1.85;;;1.52;;
45232;SDS011;30969;51.052;17.056;2023-06-14T19:35:04;2.00;;;1.40;;
45232;SDS011;30969;51.052;17.056;2023-06-14T19:40:10;2.20;;;1.42;;
45232;SDS011;30969;51.052;17.056;2023-06-14T19:45:17;1.98;;;1.52;;
45232;SDS011;30969;51.052;17.056;2023-06-14T19:50:21;2.10;;;1.35;;
45232;SDS011;30969;51.052;17.056;2023-06-14T19:55:27;4.18;;;1.65;;
45232;SDS011;30969;51.052;17.056;2023-06-14T20:00:33;2.35;;;1.55;;
45232;SDS011;30969;51.052;17.056;2023-06-14T20:05:36;3.50;;;1.90;;
45232;SDS011;30969;51.052;17.056;2023-06-14T20:10:40;1.88;;;1.50;;
45232;SDS011;30969;51.052;17.056;2023-06-14T20:15:48;2.50;;;1.90;;
45232;SDS011;30969;51.052;17.056;2023-06-14T20:20:52;3.70;;;1.90;;
45232;SDS011;30969;51.052;17.056;2023-06-14T20:25:56;2.28;;;1.67;;
45232;SDS011;30969;51.052;17.056;2023-06-14T20:31:02;2.70;;;1.83;;
45232;SDS011;30969;51.052;17.056;2023-06-14T20:36:06;4.80;;;2.20;;
45232;SDS011;30969;51.052;17.056;2023-06-14T20:41:10;3.33;;;2.15;;
45232;SDS011;30969;51.052;17.056;2023-06-14T20:46:16;2.75;;;1.90;;
45232;SDS011;30969;51.052;17.056;2023-06-14T20:51:20;3.15;;;2.08;;
45232;SDS011;30969;51.052;17.056;2023-06-14T20:56:24;4.65;;;2.72;;
45232;SDS011;30969;51.052;17.056;2023-06-14T21:01:30;5.45;;;2.53;;
45232;SDS011;30969;51.052;17.056;2023-06-14T21:06:37;2.92;;;2.30;;
45232;SDS011;30969;51.052;17.056;2023-06-14T21:11:41;4.88;;;2.10;;
45232;SDS011;30969;51.052;17.056;2023-06-14T21:16:46;2.92;;;1.98;;
45232;SDS011;30969;51.052;17.056;2023-06-14T21:21:50;4.07;;;2.38;;
45232;SDS011;30969;51.052;17.056;2023-06-14T21:26:56;3.58;;;2.38;;
45232;SDS011;30969;51.052;17.056;2023-06-14T21:32:02;3.88;;;2.50;;
45232;SDS011;30969;51.052;17.056;2023-06-14T21:37:06;2.75;;;2.20;;
45232;SDS011;30969;51.052;17.056;2023-06-14T21:42:11;3.70;;;2.05;;
45232;SDS011;30969;51.052;17.056;2023-06-14T21:47:16;3.38;;;1.80;;
45232;SDS011;30969;51.052;17.056;2023-06-14T21:52:20;2.53;;;1.98;;
45232;SDS011;30969;51.052;17.056;2023-06-14T21:57:23;3.28;;;2.30;;
45232;SDS011;30969;51.052;17.056;2023-06-14T22:02:29;2.85;;;2.17;;
45232;SDS011;30969;51.052;17.056;2023-06-14T22:07:33;2.38;;;1.90;;
45232;SDS011;30969;51.052;17.056;2023-06-14T22:12:37;2.83;;;1.83;;
45232;SDS011;30969;51.052;17.056;2023-06-14T22:17:42;1.67;;;1.50;;
45232;SDS011;30969;51.052;17.056;2023-06-14T22:22:46;2.15;;;1.50;;
45232;SDS011;30969;51.052;17.056;2023-06-14T22:27:51;2.20;;;1.58;;
45232;SDS011;30969;51.052;17.056;2023-06-14T22:32:56;2.60;;;1.80;;
45232;SDS011;30969;51.052;17.056;2023-06-14T22:38:00;2.28;;;1.75;;
45232;SDS011;30969;51.052;17.056;2023-06-14T22:43:04;3.47;;;1.60;;
45232;SDS011;30969;51.052;17.056;2023-06-14T22:48:08;1.92;;;1.58;;
45232;SDS011;30969;51.052;17.056;2023-06-14T22:53:12;1.85;;;1.45;;
45232;SDS011;30969;51.052;17.056;2023-06-14T22:58:17;2.38;;;1.73;;
45232;SDS011;30969;51.052;17.056;2023-06-14T23:03:22;2.92;;;1.48;;
45232;SDS011;30969;51.052;17.056;2023-06-14T23:08:25;2.78;;;1.80;;
45232;SDS011;30969;51.052;17.056;2023-06-14T23:13:29;2.63;;;1.92;;
45232;SDS011;30969;51.052;17.056;2023-06-14T23:18:34;2.20;;;1.80;;
45232;SDS011;30969;51.052;17.056;2023-06-14T23:23:38;4.35;;;2.63;;
45232;SDS011;30969;51.052;17.056;2023-06-14T23:28:41;3.75;;;2.50;;
45232;SDS011;30969;51.052;17.056;2023-06-14T23:33:48;3.55;;;2.60;;
45232;SDS011;30969;51.052;17.056;2023-06-14T23:38:54;3.38;;;2.35;;
45232;SDS011;30969;51.052;17.056;2023-06-14T23:43:59;5.35;;;3.30;;
45232;SDS011;30969;51.052;17.056;2023-06-14T23:49:04;2.92;;;2.00;;
45232;SDS011;30969;51.052;17.056;2023-06-14T23:54:08;3.30;;;2.13;;
45232;SDS011;30969;51.052;17.056;2023-06-14T23:59:13;3.08;;;1.90;;
